Time;durP1;ratioP1;P1;durP2;ratioP2;P2;SDS_P1;SDS_P2;PMS_P1;PMS_P2;Temp;Humidity;BMP_temperature;BMP_pressure;BME280_temperature;BME280_humidity;BME280_pressure;Samples;Min_cycle;Max_cycle;Signal;HPM_P1;HPM_P2
2023/08/11 00:00:30;;;;;;;;;;;;;;;17.77;100.00;102006.91;5131699;28;20288;-38
2023/08/11 00:02:55;;;;;;;6.82;4.57;;;;;;;17.57;100.00;101996.41;5131087;28;19956;-38
2023/08/11 00:05:21;;;;;;;;;;;;;;;17.78;100.00;102005.81;5131203;27;20022;-38
2023/08/11 00:07:50;;;;;;;5.53;4.33;;;;;;;17.60;100.00;102004.97;5131058;28;19935;-38
2023/08/11 00:10:19;;;;;;;4.97;4.50;;;;;;;17.59;100.00;102000.56;5122610;27;20263;-38
2023/08/11 00:12:45;;;;;;;8.32;5.13;;;;;;;17.61;100.00;101995.69;5116988;28;20023;-38
2023/08/11 00:15:12;;;;;;;;;;;;;;;17.73;100.00;101999.19;5117365;28;20103;-38
2023/08/11 00:17:38;;;;;;;7.20;4.90;;;;;;;17.55;100.00;101999.41;5116871;28;20245;-38
2023/08/11 00:20:06;;;;;;;6.30;5.70;;;;;;;17.45;100.00;102004.72;5116550;28;20066;-38
2023/08/11 00:22:32;;;;;;;5.55;4.85;;;;;;;17.39;100.00;102003.81;5117387;28;20035;-38
2023/08/11 00:24:57;;;;;;;;;;;;;;;17.57;100.00;102000.00;5117277;28;20016;-38
2023/08/11 00:27:23;;;;;;;5.30;4.80;;;;;;;17.45;100.00;102002.00;5117152;28;19911;-38
2023/08/11 00:29:48;;;;;;;;;;;;;;;17.54;100.00;102000.50;5117722;28;20031;-38
2023/08/11 00:32:13;;;;;;;4.57;4.17;;;;;;;17.39;100.00;101992.06;5117280;28;20345;-38
2023/08/11 00:34:39;;;;;;;;;;;;;;;17.51;100.00;101995.53;5116954;28;20258;-38
2023/08/11 00:37:04;;;;;;;5.60;5.00;;;;;;;17.30;100.00;101988.91;5116850;28;19904;-38
2023/08/11 00:39:29;;;;;;;;;;;;;;;17.48;100.00;102005.06;5116642;28;20337;-38
2023/08/11 00:41:55;;;;;;;6.70;4.93;;;;;;;17.23;100.00;102002.75;5117119;28;19939;-38
2023/08/11 00:44:20;;;;;;;;;;;;;;;17.42;100.00;101997.00;5116515;28;20315;-38
2023/08/11 00:46:47;;;;;;;6.70;4.50;;;;;;;17.20;100.00;101995.03;5116382;28;19915;-38
2023/08/11 00:49:14;;;;;;;5.70;3.70;;;;;;;17.25;100.00;101992.38;5116271;28;20032;-38
2023/08/11 00:51:40;;;;;;;5.38;4.82;;;;;;;17.22;100.00;101986.56;5116498;28;20030;-38
2023/08/11 00:54:07;;;;;;;5.03;4.53;;;;;;;17.18;100.00;101980.78;5115948;28;20035;-38
2023/08/11 00:56:33;;;;;;;6.32;5.20;;;;;;;17.16;100.00;101980.19;5116190;28;20434;-38
2023/08/11 00:58:59;;;;;;;5.50;5.00;;;;;;;17.13;100.00;101977.97;5116215;28;20051;-38
2023/08/11 01:01:25;;;;;;;;;;;;;;;17.29;100.00;101965.38;5116575;28;20027;-38
2023/08/11 01:03:50;;;;;;;6.05;4.78;;;;;;;17.13;100.00;101950.66;5115685;28;19961;-38
2023/08/11 01:06:27;;;;;;;;;;;;;;;17.29;100.00;101965.38;5116589;28;20035;-38
2023/08/11 01:09:01;;;;;;;5.97;5.43;;;;;;;17.09;100.00;101959.59;5116132;27;20317;-38
2023/08/11 01:11:35;;;;;;;8.18;6.28;;;;;;;17.07;100.00;101969.91;5116012;28;20039;-38
2023/08/11 01:14:07;;;;;;;6.50;5.53;;;;;;;17.16;100.00;101965.69;5116438;28;20102;-37
2023/08/11 01:16:34;;;;;;;8.48;5.75;;;;;;;17.06;100.00;101963.63;5116606;28;20026;-37
2023/08/11 01:19:01;;;;;;;7.22;6.45;;;;;;;17.06;100.00;101960.88;5115334;28;20064;-37
2023/08/11 01:21:28;;;;;;;6.97;6.10;;;;;;;17.02;100.00;101958.91;5115568;28;20019;-37
2023/08/11 01:23:53;;;;;;;7.03;6.15;;;;;;;16.92;100.00;101949.44;5115665;28;20026;-37
2023/08/11 01:26:19;;;;;;;;;;;;;;;17.11;100.00;101951.94;5116628;28;20027;-37
2023/08/11 01:28:44;;;;;;;7.50;6.80;;;;;;;16.91;100.00;101946.97;5115517;28;19904;-37
2023/08/11 01:31:10;;;;;;;;;;;;;;;17.05;100.00;101948.31;5116514;28;20390;-37
2023/08/11 01:33:37;;;;;;;6.95;6.25;;;;;;;16.82;100.00;101929.31;5115116;28;19907;-37
2023/08/11 01:36:03;;;;;;;8.98;6.30;;;;;;;16.82;100.00;101937.50;5115942;27;20447;-37
2023/08/11 01:38:29;;;;;;;6.75;6.15;;;;;;;16.82;100.00;101943.81;5115779;28;20032;-38
2023/08/11 01:40:54;;;;;;;;;;;;;;;16.97;100.00;101945.97;5116089;28;20019;-38
2023/08/11 01:43:22;;;;;;;9.05;6.65;;;;;;;16.76;100.00;101961.19;5115184;27;19948;-37
2023/08/11 01:45:48;;;;;;;7.72;6.40;;;;;;;16.75;100.00;101954.06;5115490;28;20019;-37
2023/08/11 01:48:17;;;;;;;6.95;6.25;;;;;;;16.68;100.00;101948.69;5115145;28;20409;-37
2023/08/11 01:50:42;;;;;;;7.40;6.65;;;;;;;16.68;100.00;101951.44;5115357;28;20410;-37
2023/08/11 01:53:08;;;;;;;;;;;;;;;16.86;100.00;101949.59;5115603;28;20028;-37
2023/08/11 01:55:33;;;;;;;9.60;6.93;;;;;;;16.73;100.00;101961.66;5114977;28;20308;-37
2023/08/11 01:57:59;;;;;;;;;;;;;;;16.83;100.00;101950.91;5115383;28;20027;-37
2023/08/11 02:00:24;;;;;;;7.65;6.95;;;;;;;16.64;100.00;101950.28;5116143;28;19916;-37
2023/08/11 02:02:49;;;;;;;;;;;;;;;16.78;100.00;101948.09;5115646;28;20482;-37
2023/08/11 02:05:18;;;;;;;6.80;6.20;;;;;;;16.63;100.00;101940.41;5115357;28;19954;-37
2023/08/11 02:07:45;;;;;;;9.10;7.13;;;;;;;16.57;100.00;101943.31;5114803;28;20376;-37
2023/08/11 02:10:11;;;;;;;6.78;6.18;;;;;;;16.56;100.00;101930.75;5114687;28;20020;-37
2023/08/11 02:12:38;;;;;;;9.25;6.85;;;;;;;16.42;100.00;101925.56;5115278;28;20099;-37
2023/08/11 02:15:07;;;;;;;6.90;6.30;;;;;;;16.48;100.00;101937.41;5114352;28;20012;-37
2023/08/11 02:17:33;;;;;;;8.02;7.22;;;;;;;16.47;100.00;101931.13;5114852;28;20336;-37
2023/08/11 02:19:59;;;;;;;;;;;;;;;16.64;100.00;101943.97;5114778;28;20044;-37
2023/08/11 02:22:25;;;;;;;7.47;6.77;;;;;;;16.53;100.00;101940.22;5114328;28;20355;-37
2023/08/11 02:24:50;;;;;;;;;;;;;;;16.65;100.00;101932.00;5114619;28;20277;-37
2023/08/11 02:27:15;;;;;;;7.07;6.43;;;;;;;16.54;100.00;101928.22;5114280;28;20070;-37
2023/08/11 02:29:40;;;;;;;;;;;;;;;16.65;100.00;101927.38;5114933;28;20323;-37
2023/08/11 02:32:07;;;;;;;7.22;6.50;;;;;;;16.47;100.00;101927.56;5114049;28;19911;-37
2023/08/11 02:34:33;;;;;;;9.93;8.93;;;;;;;16.42;100.00;101928.28;5114278;28;20073;-37
2023/08/11 02:36:58;;;;;;;;;;;;;;;16.56;100.00;101928.84;5115074;28;20027;-37
2023/08/11 02:39:24;;;;;;;8.95;8.15;;;;;;;16.32;100.00;101932.72;5114234;28;19908;-37
2023/08/11 02:41:49;;;;;;;;;;;;;;;16.47;100.00;101933.84;5115308;28;20023;-37
2023/08/11 02:44:14;;;;;;;9.38;8.57;;;;;;;16.23;100.00;101933.09;5114764;28;19949;-37
2023/08/11 02:46:40;;;;;;;;;;;;;;;16.41;100.00;101937.56;5115520;28;20032;-37
2023/08/11 02:49:07;;;;;;;9.10;7.95;;;;;;;16.22;100.00;101938.81;5114683;28;20328;-37
2023/08/11 02:51:32;;;;;;;8.98;7.82;;;;;;;16.12;100.00;101939.44;5114405;28;20028;-37
2023/08/11 02:53:58;;;;;;;;;;;;;;;16.28;100.00;101939.75;5114599;28;20146;-37
2023/08/11 02:56:23;;;;;;;8.90;8.00;;;;;;;16.09;100.00;101939.09;5113830;28;20292;-37
2023/08/11 02:58:49;;;;;;;;;;;;;;;16.20;100.00;101949.13;5113526;28;20051;-37
2023/08/11 03:01:14;;;;;;;9.50;8.20;;;;;;;16.02;100.00;101949.31;5114853;28;20033;-37
2023/08/11 03:03:42;;;;;;;;;;;;;;;16.15;100.00;101947.16;5115267;28;20451;-37
2023/08/11 03:06:08;;;;;;;;;;;;;;;16.15;100.00;101941.69;5114803;28;19911;-37
2023/08/11 03:08:33;;;;;;;8.38;7.60;;;;;;;15.98;100.00;101942.66;5114040;28;19908;-37
2023/08/11 03:10:58;;;;;;;;;;;;;;;16.10;100.00;101938.00;5114788;28;20031;-36
2023/08/11 03:13:24;;;;;;;11.80;8.65;;;;;;;15.81;100.00;101915.28;5113947;28;19904;-37
2023/08/11 03:15:49;;;;;;;;;;;;;;;16.04;100.00;101926.16;5115270;28;20451;-36
2023/08/11 03:18:14;;;;;;;9.47;8.07;;;;;;;15.94;100.00;101929.50;5113902;28;19994;-36
2023/08/11 03:20:40;;;;;;;;;;;;;;;16.07;100.00;101927.59;5114342;28;20755;-36
2023/08/11 03:23:06;;;;;;;9.60;8.55;;;;;;;15.93;100.00;101916.94;5114717;28;19908;-36
2023/08/11 03:25:31;;;;;;;11.82;8.80;;;;;;;15.97;100.00;101920.03;5114191;28;20360;-37
2023/08/11 03:27:56;;;;;;;;;;;;;;;16.10;100.00;101932.53;5114855;28;20341;-37
2023/08/11 03:30:23;;;;;;;9.90;8.55;;;;;;;15.96;100.00;101934.75;5114311;28;19926;-37
2023/08/11 03:32:48;;;;;;;9.80;8.90;;;;;;;15.86;100.00;101923.59;5113762;28;20114;-37
2023/08/11 03:35:13;;;;;;;;;;;;;;;16.04;100.00;101931.63;5114076;28;20103;-37
2023/08/11 03:37:39;;;;;;;14.23;9.50;;;;;;;15.90;100.00;101928.31;5113176;28;19903;-36
2023/08/11 03:40:12;;;;;;;;;;;;;;;15.99;100.00;101926.06;5114070;28;20023;-37
2023/08/11 03:42:38;;;;;;;10.18;9.25;;;;;;;15.74;100.00;101920.88;5113693;28;19910;-37
2023/08/11 03:45:04;;;;;;;10.18;9.27;;;;;;;15.75;100.00;101927.16;5114691;28;20032;-37
2023/08/11 03:47:30;;;;;;;10.65;9.55;;;;;;;15.67;100.00;101928.38;5118113;28;20024;-37
2023/08/11 03:49:55;;;;;;;;;;;;;;;15.85;100.00;101927.38;5118472;28;20028;-37
2023/08/11 03:52:20;;;;;;;10.40;9.50;;;;;;;15.63;100.00;101910.81;5117715;28;19923;-37
2023/08/11 03:54:45;;;;;;;;;;;;;;;15.81;100.00;101920.75;5117481;28;20265;-36
2023/08/11 03:57:11;;;;;;;10.95;9.32;;;;;;;15.74;100.00;101914.59;5117910;28;19903;-37
2023/08/11 03:59:36;;;;;;;;;;;;;;;15.82;100.00;101916.97;5117899;28;20122;-37
2023/08/11 04:02:02;;;;;;;10.47;9.47;;;;;;;15.63;100.00;101903.47;5117314;28;19943;-37
2023/08/11 04:04:27;;;;;;;;;;;;;;;15.83;100.00;101905.00;5117607;28;20273;-37
2023/08/11 04:06:52;;;;;;;11.43;9.53;;;;;;;15.65;100.00;101909.50;5116949;28;19943;-37
2023/08/11 04:09:18;;;;;;;10.65;9.65;;;;;;;15.62;100.00;101909.97;5117165;27;20269;-36
2023/08/11 04:11:44;;;;;;;9.95;9.05;;;;;;;15.54;100.00;101910.31;5117753;28;20076;-36
2023/08/11 04:14:09;;;;;;;10.02;9.02;;;;;;;15.58;100.00;101916.97;5117018;27;20385;-37
2023/08/11 04:16:35;;;;;;;;;;;;;;;15.69;100.00;101918.88;5118008;28;20027;-37
2023/08/11 04:19:00;;;;;;;10.03;9.03;;;;;;;15.50;100.00;101905.59;5116806;28;19908;-37
2023/08/11 04:21:25;;;;;;;;;;;;;;;15.66;100.00;101922.09;5117731;27;20250;-37
2023/08/11 04:23:51;;;;;;;9.65;8.75;;;;;;;15.51;100.00;101921.69;5117643;28;19950;-37
2023/08/11 04:26:16;;;;;;;;;;;;;;;15.65;100.00;101916.88;5117856;28;20019;-37
2023/08/11 04:28:43;;;;;;;10.40;9.37;;;;;;;15.46;100.00;101908.78;5116755;28;19911;-37
2023/08/11 04:31:09;;;;;;;10.70;9.18;;;;;;;15.48;100.00;101905.84;5117321;28;20667;-37
2023/08/11 04:33:35;;;;;;;;;;;;;;;15.64;100.00;101921.50;5115599;28;20090;-37
2023/08/11 04:36:00;;;;;;;10.10;9.20;;;;;;;15.49;100.00;101914.84;5116936;28;19996;-37
2023/08/11 04:38:26;;;;;;;;;;;;;;;15.65;100.00;101917.69;5117269;28;20024;-37
2023/08/11 04:40:52;;;;;;;7.90;7.20;;;;;;;15.63;100.00;101918.97;5116460;28;20353;-37
2023/08/11 04:43:19;;;;;;;10.30;9.23;;;;;;;15.61;100.00;101918.38;5117070;28;20023;-37
2023/08/11 04:45:44;;;;;;;10.32;9.20;;;;;;;15.60;100.00;101909.38;5116362;28;20023;-37
2023/08/11 04:48:10;;;;;;;10.48;8.65;;;;;;;15.64;100.00;101913.31;5117000;28;20040;-38
2023/08/11 04:50:35;;;;;;;;;;;;;;;15.77;100.00;101914.13;5116743;28;20049;-38
2023/08/11 04:53:00;;;;;;;11.97;8.47;;;;;;;15.67;100.00;101910.13;5116513;28;19912;-37
2023/08/11 04:55:26;;;;;;;;;;;;;;;15.83;100.00;101905.00;5115932;28;20617;-37
2023/08/11 04:57:51;;;;;;;9.95;8.90;;;;;;;15.79;100.00;101906.53;5116596;28;19908;-37
2023/08/11 05:00:17;;;;;;;;;;;;;;;15.88;100.00;101903.19;5116464;27;20048;-38
2023/08/11 05:02:43;;;;;;;9.75;8.80;;;;;;;15.80;100.00;101894.56;5115827;28;19955;-38
2023/08/11 05:05:10;;;;;;;11.63;9.90;;;;;;;15.78;100.00;101897.53;5115774;28;20024;-38
2023/08/11 05:07:35;;;;;;;;;;;;;;;15.92;100.00;101895.38;5116525;28;20412;-38
2023/08/11 05:10:00;;;;;;;11.27;9.32;;;;;;;15.82;100.00;101878.78;5115442;28;20002;-38
2023/08/11 05:12:26;;;;;;;12.18;8.93;;;;;;;15.83;100.00;101877.72;5115689;28;20061;-38
2023/08/11 05:14:51;;;;;;;;;;;;;;;16.06;100.00;101880.38;5116585;28;20402;-38
2023/08/11 05:17:16;;;;;;;10.73;9.00;;;;;;;15.95;100.00;101879.31;5115248;28;19911;-38
2023/08/11 05:19:42;;;;;;;;;;;;;;;16.18;100.00;101886.63;5116417;28;20023;-38
2023/08/11 05:22:07;;;;;;;9.95;8.95;;;;;;;16.08;100.00;101882.88;5116019;28;19908;-37
2023/08/11 05:24:32;;;;;;;;;;;;;;;16.32;100.00;101894.53;5115562;28;20053;-38
2023/08/11 05:26:58;;;;;;;9.83;8.77;;;;;;;16.31;100.00;101881.94;5115448;28;20052;-37
2023/08/11 05:29:23;;;;;;;;;;;;;;;16.48;100.00;101893.72;5115710;28;20350;-37
2023/08/11 05:31:49;;;;;;;9.95;8.85;;;;;;;16.47;100.00;101892.91;5116056;28;19916;-37
2023/08/11 05:34:14;;;;;;;;;;;;;;;16.61;100.00;101887.97;5115354;28;20019;-37
2023/08/11 05:36:39;;;;;;;10.68;9.57;;;;;;;16.49;100.00;101870.81;5115928;28;19907;-37
2023/08/11 05:39:06;;;;;;;;;;;;;;;16.70;100.00;101885.66;5115132;28;20020;-37
2023/08/11 05:41:32;;;;;;;8.85;7.95;;;;;;;16.69;100.00;101882.13;5115598;28;20002;-37
2023/08/11 05:43:57;;;;;;;;;;;;;;;16.85;100.00;101882.41;5115411;28;20504;-37
2023/08/11 05:46:23;;;;;;;10.57;8.75;;;;;;;16.76;100.00;101884.69;5115268;28;19953;-37
2023/08/11 05:48:48;;;;;;;;;;;;;;;16.94;100.00;101883.66;5114956;28;20122;-37
2023/08/11 05:51:16;;;;;;;9.68;8.00;;;;;;;16.94;100.00;101875.44;5114952;28;19914;-37
2023/08/11 05:53:41;;;;;;;9.07;7.68;;;;;;;17.02;100.00;101883.22;5115049;28;20020;-37
2023/08/11 05:56:06;;;;;;;;;;;;;;;17.16;100.00;101883.72;5115748;28;20027;-37
2023/08/11 05:58:32;;;;;;;12.07;8.70;;;;;;;17.09;100.00;101892.09;5114635;28;20007;-37
2023/08/11 06:00:57;;;;;;;;;;;;;;;17.25;100.00;101883.03;5115306;28;20320;-37
2023/08/11 06:03:29;;;;;;;9.17;7.83;;;;;;;17.28;100.00;101883.63;5115244;28;20319;-38
2023/08/11 06:06:01;;;;;;;9.02;7.93;;;;;;;17.37;100.00;101885.69;5115138;28;20318;-38
2023/08/11 06:08:27;;;;;;;9.55;8.55;;;;;;;17.44;100.00;101886.31;5114323;28;20031;-38
2023/08/11 06:10:54;;;;;;;11.60;8.82;;;;;;;17.36;100.00;101869.50;5114491;28;20015;-38
2023/08/11 06:13:20;;;;;;;9.30;7.75;;;;;;;17.52;100.00;101882.34;5114924;28;20325;-38
2023/08/11 06:15:45;;;;;;;;;;;;;;;17.71;100.00;101874.63;5114847;28;20113;-38
2023/08/11 06:18:11;;;;;;;11.55;7.10;;;;;;;17.74;100.00;101879.66;5114556;28;19914;-38
2023/08/11 06:20:36;;;;;;;;;;;;;;;17.88;100.00;101886.41;5114986;28;20462;-38
2023/08/11 06:23:02;;;;;;;9.38;7.97;;;;;;;17.83;100.00;101877.31;5114281;28;20003;-38
2023/08/11 06:25:27;;;;;;;;;;;;;;;18.01;100.00;101887.94;5114397;28;20024;-38
2023/08/11 06:27:53;;;;;;;8.15;7.35;;;;;;;17.94;100.00;101890.03;5114424;28;19904;-37
2023/08/11 06:30:18;;;;;;;;;;;;;;;18.11;100.00;101879.84;5114867;28;20453;-37
2023/08/11 06:32:43;;;;;;;13.85;8.68;;;;;;;18.05;100.00;101886.31;5114417;28;20243;-37
2023/08/11 06:35:09;;;;;;;;;;;;;;;18.20;100.00;101886.53;5115043;28;20415;-37
2023/08/11 06:37:34;;;;;;;16.30;8.80;;;;;;;18.15;100.00;101871.91;5114061;28;19927;-36
2023/08/11 06:39:59;;;;;;;;;;;;;;;18.35;100.00;101885.84;5114179;28;20023;-37
2023/08/11 06:42:25;;;;;;;8.95;6.97;;;;;;;18.25;100.00;101883.84;5114030;28;20007;-38
2023/08/11 06:44:51;;;;;;;;;;;;;;;18.42;100.00;101894.69;5114370;28;20019;-38
2023/08/11 06:47:16;;;;;;;13.88;8.05;;;;;;;18.39;100.00;101889.72;5114524;28;19914;-38
2023/08/11 06:49:42;;;;;;;9.60;7.43;;;;;;;18.44;100.00;101895.22;5113506;28;20032;-38
2023/08/11 06:52:07;;;;;;;;;;;;;;;18.58;100.00;101898.38;5114633;28;20030;-38
2023/08/11 06:54:33;;;;;;;8.07;7.10;;;;;;;18.62;100.00;101902.28;5113852;28;20347;-38
2023/08/11 06:57:01;;;;;;;8.68;7.10;;;;;;;18.70;100.00;101904.59;5113839;28;20415;-38
2023/08/11 06:59:26;;;;;;;9.85;6.88;;;;;;;18.80;100.00;101903.03;5113765;28;20107;-38
2023/08/11 07:01:51;;;;;;;;;;;;;;;18.93;100.00;101903.41;5114666;28;20123;-38
2023/08/11 07:04:16;;;;;;;8.47;6.07;;;;;;;18.97;100.00;101903.69;5114351;28;19908;-36
2023/08/11 07:06:42;;;;;;;;;;;;;;;19.12;100.00;101906.56;5114248;28;20808;-37
2023/08/11 07:09:08;;;;;;;8.15;6.03;;;;;;;19.09;100.00;101901.63;5114028;28;19914;-36
2023/08/11 07:11:33;;;;;;;9.52;6.50;;;;;;;19.14;100.00;101898.91;5114512;28;20030;-37
2023/08/11 07:13:58;;;;;;;;;;;;;;;19.27;100.00;101903.09;5114930;28;20023;-37
2023/08/11 07:16:24;;;;;;;6.90;5.83;;;;;;;19.26;100.00;101902.28;5114255;28;19908;-37
2023/08/11 07:18:49;;;;;;;;;;;;;;;19.40;100.00;101902.66;5115049;28;20281;-37
2023/08/11 07:21:14;;;;;;;7.40;5.45;;;;;;;19.42;100.00;101905.13;5117902;28;19908;-38
2023/08/11 07:23:40;;;;;;;8.63;5.60;;;;;;;19.47;100.00;101902.41;5117754;28;20062;-37
2023/08/11 07:26:05;;;;;;;8.32;5.85;;;;;;;19.49;100.00;101894.75;5117988;28;20031;-37
2023/08/11 07:28:30;;;;;;;;;;;;;;;19.66;100.00;101905.56;5119156;28;20102;-37
2023/08/11 07:30:56;;;;;;;7.20;5.57;;;;;;;19.62;100.00;101890.72;5117687;28;19907;-37
2023/08/11 07:33:21;;;;;;;6.07;5.30;;;;;;;19.77;100.00;101905.38;5117851;28;20265;-37
2023/08/11 07:35:46;;;;;;;7.88;5.20;;;;;;;19.78;100.00;101901.53;5118661;28;20448;-37
2023/08/11 07:38:12;;;;;;;6.45;4.97;;;;;;;19.84;100.00;101896.88;5118275;28;20027;-37
2023/08/11 07:40:37;;;;;;;8.75;5.40;;;;;;;19.96;100.00;101899.41;5117620;28;20030;-37
2023/08/11 07:43:03;;;;;;;8.25;4.97;;;;;;;20.08;100.00;101894.53;5117378;28;20059;-37
2023/08/11 07:45:29;;;;;;;6.22;5.18;;;;;;;20.20;100.00;101900.59;5118403;28;20019;-38
2023/08/11 07:47:55;;;;;;;6.70;4.80;;;;;;;20.21;100.00;101894.03;5118114;28;20054;-37
2023/08/11 07:50:20;;;;;;;8.85;4.70;;;;;;;20.31;100.00;101895.97;5117425;28;20535;-38
2023/08/11 07:52:46;;;;;;;6.05;4.80;;;;;;;20.42;100.00;101908.63;5117229;28;20027;-37
2023/08/11 07:55:11;;;;;;;5.97;4.20;;;;;;;20.49;100.00;101903.72;5117676;28;20070;-38
2023/08/11 07:57:37;;;;;;;5.60;4.32;;;;;;;20.55;100.00;101907.31;5117372;28;20466;-38
2023/08/11 08:00:05;;;;;;;5.43;4.57;;;;;;;20.76;100.00;101906.25;5117570;28;20023;-38
2023/08/11 08:02:30;;;;;;;9.57;5.07;;;;;;;20.82;100.00;101907.88;5117945;28;20058;-37
2023/08/11 08:04:55;;;;;;;7.93;4.10;;;;;;;20.95;100.00;101908.44;5117307;28;20448;-37
2023/08/11 08:07:21;;;;;;;6.75;3.83;;;;;;;21.01;100.00;101912.84;5117591;28;20027;-37
2023/08/11 08:09:47;;;;;;;4.03;3.42;;;;;;;21.07;100.00;101912.56;5117034;28;20027;-37
2023/08/11 08:12:15;;;;;;;6.53;3.25;;;;;;;21.19;100.00;101911.47;5117111;28;20026;-38
2023/08/11 08:14:41;;;;;;;5.80;3.45;;;;;;;21.33;100.00;101905.16;5116725;28;20015;-37
2023/08/11 08:17:07;;;;;;;4.25;3.10;;;;;;;21.43;100.00;101909.81;5117852;28;20501;-37
2023/08/11 08:19:32;;;;;;;5.65;2.80;;;;;;;21.41;100.00;101898.25;5115609;27;20047;-38
2023/08/11 08:21:57;;;;;;;6.53;3.03;;;;;;;21.65;97.33;101905.91;5116718;27;20028;-37
2023/08/11 08:24:23;;;;;;;6.45;2.90;;;;;;;21.70;94.55;101901.19;5116406;28;20028;-37
2023/08/11 08:26:48;;;;;;;3.65;2.50;;;;;;;21.79;95.58;101902.28;5116933;28;20039;-37
2023/08/11 08:29:14;;;;;;;5.32;3.10;;;;;;;21.89;96.31;101893.16;5116743;28;20019;-38
2023/08/11 08:31:40;;;;;;;4.15;2.80;;;;;;;22.06;94.31;101892.81;5117019;28;20023;-38
2023/08/11 08:34:05;;;;;;;2.75;2.33;;;;;;;22.12;92.90;101902.72;5116715;28;20336;-37
2023/08/11 08:36:30;;;;;;;3.20;2.47;;;;;;;22.22;92.52;101908.19;5116646;28;20028;-37
2023/08/11 08:38:56;;;;;;;4.45;2.50;;;;;;;22.32;94.32;101910.88;5116821;28;20396;-38
2023/08/11 08:41:30;;;;;;;3.58;2.50;;;;;;;22.38;93.83;101902.56;5116533;28;20042;-38
2023/08/11 08:43:59;;;;;;;3.80;2.63;;;;;;;22.49;90.56;101907.72;5117360;28;20347;-38
2023/08/11 08:46:30;;;;;;;3.70;2.50;;;;;;;22.62;91.26;101898.00;5116729;28;20033;-38
2023/08/11 08:49:10;;;;;;;3.65;2.33;;;;;;;22.78;89.50;101907.78;5116453;28;20362;-38
2023/08/11 08:51:39;;;;;;;3.90;2.50;;;;;;;22.90;89.92;101903.91;5116301;28;20040;-38
2023/08/11 08:54:08;;;;;;;2.85;2.30;;;;;;;23.01;91.36;101903.50;5116273;28;20420;-38
2023/08/11 08:56:35;;;;;;;4.30;2.10;;;;;;;23.13;89.03;101908.63;5117041;28;20353;-38
2023/08/11 08:59:00;;;;;;;5.93;2.30;;;;;;;23.27;87.82;101897.75;5115901;28;20417;-38
2023/08/11 09:01:26;;;;;;;6.43;2.72;;;;;;;23.27;87.42;101893.06;5111556;28;20015;-38
2023/08/11 09:03:52;;;;;;;5.00;2.08;;;;;;;23.36;86.54;101887.72;5115995;28;20027;-38
2023/08/11 09:06:18;;;;;;;3.75;2.25;;;;;;;23.51;88.67;101889.50;5115795;28;20028;-38
2023/08/11 09:08:45;;;;;;;5.68;2.65;;;;;;;23.65;86.40;101893.25;5115729;28;20027;-38
2023/08/11 09:11:10;;;;;;;2.95;2.25;;;;;;;23.70;89.72;101879.38;5113912;28;20091;-38
2023/08/11 09:13:37;;;;;;;4.18;2.63;;;;;;;23.87;87.00;101896.28;5115602;28;20111;-38
2023/08/11 09:16:03;;;;;;;5.53;2.45;;;;;;;24.02;87.42;101891.69;5115854;28;20341;-38
2023/08/11 09:18:28;;;;;;;3.63;2.45;;;;;;;24.05;88.00;101899.38;5115723;28;20034;-38
2023/08/11 09:20:54;;;;;;;5.10;2.22;;;;;;;24.23;85.44;101900.53;5115824;27;20024;-37
2023/08/11 09:23:19;;;;;;;4.40;2.70;;;;;;;24.26;83.82;101898.00;5114030;27;20483;-37
2023/08/11 09:25:45;;;;;;;3.60;2.25;;;;;;;24.41;86.56;101891.44;5115706;28;20046;-37
2023/08/11 09:28:11;;;;;;;4.47;2.35;;;;;;;24.43;83.17;101897.50;5115911;28;20131;-37
2023/08/11 09:30:38;;;;;;;4.70;2.28;;;;;;;24.57;83.14;101892.03;5115536;28;20023;-37
2023/08/11 09:33:07;;;;;;;4.90;1.98;;;;;;;24.73;82.83;101887.06;5113803;28;20518;-37
2023/08/11 09:35:33;;;;;;;5.30;2.28;;;;;;;24.87;79.38;101893.47;5116041;28;20102;-37
2023/08/11 09:37:59;;;;;;;2.08;1.80;;;;;;;25.01;82.26;101888.00;5115636;28;20029;-37
2023/08/11 09:40:26;;;;;;;4.30;1.88;;;;;;;25.25;80.53;101888.69;5115113;28;20024;-37
2023/08/11 09:42:55;;;;;;;3.53;2.00;;;;;;;25.38;81.17;101887.09;5112492;28;20460;-37
2023/08/11 09:45:22;;;;;;;3.08;1.70;;;;;;;25.32;79.18;101882.75;5115605;28;20047;-38
2023/08/11 09:47:47;;;;;;;4.47;2.05;;;;;;;25.22;79.77;101874.63;5115317;28;20077;-37
2023/08/11 09:50:14;;;;;;;2.75;1.75;;;;;;;25.10;77.84;101880.69;5115463;28;20090;-37
2023/08/11 09:52:41;;;;;;;4.38;2.30;;;;;;;25.09;80.26;101881.81;5113459;28;20430;-37
2023/08/11 09:55:09;;;;;;;3.30;1.85;;;;;;;25.05;82.44;101877.97;5115169;27;20027;-37
2023/08/11 09:57:37;;;;;;;4.78;1.98;;;;;;;25.30;81.54;101885.84;5115712;28;20100;-37
2023/08/11 10:00:04;;;;;;;4.22;2.20;;;;;;;25.38;79.17;101884.31;5114936;28;20038;-37
2023/08/11 10:02:31;;;;;;;3.70;1.80;;;;;;;25.39;78.24;101884.00;5113136;28;20368;-37
2023/08/11 10:05:04;;;;;;;4.25;1.95;;;;;;;25.49;79.23;101879.41;5099330;28;20066;-37
2023/08/11 10:07:37;;;;;;;5.07;2.00;;;;;;;25.63;78.09;101885.75;5107925;28;20036;-37
2023/08/11 10:10:10;;;;;;;3.50;1.73;;;;;;;25.84;80.41;101877.88;5114701;28;20073;-38
2023/08/11 10:12:40;;;;;;;2.38;1.65;;;;;;;25.99;76.35;101885.03;5114754;28;20455;-37
2023/08/11 10:15:08;;;;;;;4.57;1.75;;;;;;;26.10;75.49;101901.13;5115037;28;20455;-37
2023/08/11 10:17:34;;;;;;;4.38;1.75;;;;;;;26.16;76.32;101894.38;5115314;28;20045;-37
2023/08/11 10:20:04;;;;;;;3.10;1.52;;;;;;;26.26;75.41;101887.78;5114297;28;20072;-37
2023/08/11 10:22:31;;;;;;;2.47;1.67;;;;;;;26.32;73.56;101878.19;5115487;28;20057;-37
2023/08/11 10:24:56;;;;;;;2.47;1.45;;;;;;;26.47;76.39;101884.56;5114554;28;20031;-37
2023/08/11 10:27:23;;;;;;;2.58;1.65;;;;;;;26.50;76.96;101883.91;5114823;28;20516;-37
2023/08/11 10:29:50;;;;;;;3.13;1.65;;;;;;;26.47;71.22;101862.38;5114157;28;20175;-37
2023/08/11 10:32:16;;;;;;;3.60;1.42;;;;;;;26.54;72.69;101871.06;5114436;28;20111;-37
2023/08/11 10:34:41;;;;;;;2.40;1.67;;;;;;;26.52;73.82;101878.88;5114726;28;20095;-37
2023/08/11 10:37:08;;;;;;;2.53;1.50;;;;;;;26.55;71.31;101867.13;5114115;28;20092;-37
2023/08/11 10:39:35;;;;;;;2.42;1.40;;;;;;;26.66;71.07;101876.88;5114238;28;20038;-37
2023/08/11 10:42:02;;;;;;;4.45;1.65;;;;;;;26.78;73.64;101876.28;5114957;28;20065;-38
2023/08/11 10:44:29;;;;;;;4.20;1.50;;;;;;;26.83;73.41;101876.97;5115096;28;20366;-38
2023/08/11 10:46:58;;;;;;;3.30;1.38;;;;;;;26.95;69.72;101873.66;5113998;28;20517;-38
2023/08/11 10:49:34;;;;;;;4.13;1.83;;;;;;;27.02;71.00;101865.66;5114164;28;20508;-38
2023/08/11 10:52:01;;;;;;;2.17;1.42;;;;;;;27.10;68.86;101866.91;5114182;28;20027;-38
2023/08/11 10:54:26;;;;;;;1.60;1.20;;;;;;;27.20;71.85;101874.97;5113963;28;20051;-38
2023/08/11 10:56:53;;;;;;;3.80;1.48;;;;;;;27.21;69.80;101882.97;5113893;28;20059;-39
2023/08/11 10:59:21;;;;;;;4.07;1.60;;;;;;;27.24;70.75;101873.19;5114360;28;20385;-36
2023/08/11 11:01:48;;;;;;;2.45;1.48;;;;;;;27.27;69.94;101861.41;5114194;28;20031;-37
2023/08/11 11:04:16;;;;;;;3.42;1.70;;;;;;;27.41;73.02;101862.13;5114351;28;20046;-38
2023/08/11 11:06:44;;;;;;;3.00;1.30;;;;;;;27.50;71.08;101859.41;5114357;28;20463;-37
2023/08/11 11:09:10;;;;;;;4.18;1.35;;;;;;;27.54;68.90;101862.38;5114820;28;20409;-38
2023/08/11 11:11:36;;;;;;;3.13;1.48;;;;;;;27.62;67.98;101867.09;5114248;28;20120;-37
2023/08/11 11:14:03;;;;;;;2.78;1.33;;;;;;;27.58;69.54;101847.50;5114228;28;20028;-37
2023/08/11 11:16:29;;;;;;;1.88;1.33;;;;;;;27.62;65.81;101856.00;5113954;28;20031;-38
2023/08/11 11:18:55;;;;;;;2.90;1.40;;;;;;;27.77;68.52;101866.72;5113568;28;20011;-37
2023/08/11 11:21:20;;;;;;;3.35;1.25;;;;;;;27.77;67.57;101861.16;5114170;28;20439;-38
2023/08/11 11:23:49;;;;;;;3.88;1.33;;;;;;;27.83;69.34;101861.81;5113598;28;20027;-37
2023/08/11 11:26:21;;;;;;;2.67;1.45;;;;;;;27.85;68.53;101852.00;5114200;28;20051;-38
2023/08/11 11:28:46;;;;;;;3.65;1.30;;;;;;;27.97;70.68;101865.28;5113893;28;20043;-37